Time,TemperatureF,DewpointF,PressureIn,WindDirection,WindDirectionDegrees,WindSpeedMPH,WindSpeedGustMPH,Humidity,HourlyPrecipIn,Conditions,Clouds,dailyrainin,SoftwareType,DateUTC
2013-06-20 09:00:00,63.0,-99.9,30.16,SSE,150,14.0,-999.0,-999,-99.99,,,-99.99,,2013-06-20 09:00:00,
2013-06-20 09:43:00,63.0,-99.9,30.16,SSE,150,14.0,-999.0,-999,-99.99,,,-99.99,,2013-06-20 09:43:00,
2013-06-20 09:52:00,63.0,-99.9,30.16,SSE,150,14.0,-999.0,-999,-99.99,,,-99.99,,2013-06-20 09:52:00,
2013-06-20 10:00:00,59.0,-99.9,30.19,South,170,5.0,-999.0,-999,-99.99,,,-99.99,,2013-06-20 10:00:00,
2013-06-20 10:34:00,59.0,-99.9,30.19,South,170,5.0,-999.0,-999,-99.99,,,-99.99,,2013-06-20 10:34:00,
2013-06-20 10:44:00,59.0,-99.9,30.19,South,170,5.0,-999.0,-999,-99.99,,,-99.99,,2013-06-20 10:44:00,
2013-06-20 10:53:00,59.0,-99.9,30.19,South,170,5.0,-999.0,-999,-99.99,,,-99.99,,2013-06-20 10:53:00,
2013-06-20 11:00:00,60.0,-99.9,30.21,SSW,210,2.0,-999.0,-999,-99.99,,,-99.99,,2013-06-20 11:00:00,
2013-06-20 11:43:00,60.0,-99.9,30.21,SSW,210,2.0,-999.0,-999,-99.99,,,-99.99,,2013-06-20 11:43:00,
2013-06-20 11:53:00,60.0,-99.9,30.21,SSW,210,2.0,-999.0,-999,-99.99,,,-99.99,,2013-06-20 11:53:00,
2013-06-20 12:00:00,63.0,-99.9,30.22,South,190,3.0,-999.0,-999,-99.99,,,-99.99,,2013-06-20 12:00:00,
2013-06-20 12:43:00,63.0,-99.9,30.22,South,190,3.0,-999.0,-999,-99.99,,,-99.99,,2013-06-20 12:43:00,
2013-06-20 12:53:00,63.0,-99.9,30.22,South,190,3.0,-999.0,-999,-99.99,,,-99.99,,2013-06-20 12:53:00,
2013-06-20 13:00:00,66.0,-99.9,30.22,South,180,5.0,-999.0,-999,-99.99,,,-99.99,,2013-06-20 13:00:00,
2013-06-20 13:43:00,66.0,-99.9,30.22,South,180,5.0,-999.0,-999,-99.99,,,-99.99,,2013-06-20 13:43:00,
2013-06-20 13:53:00,66.0,-99.9,30.22,South,180,5.0,-999.0,-999,-99.99,,,-99.99,,2013-06-20 13:53:00,
2013-06-20 14:00:00,71.0,-99.9,30.22,SE,130,5.0,-999.0,-999,-99.99,,,-99.99,,2013-06-20 14:00:00,
2013-06-20 14:42:00,71.0,-99.9,30.22,SE,130,5.0,-999.0,-999,-99.99,,,-99.99,,2013-06-20 14:42:00,
2013-06-20 14:53:00,71.0,-99.9,30.22,SE,130,5.0,-999.0,-999,-99.99,,,-99.99,,2013-06-20 14:53:00,
2013-06-20 15:00:00,75.0,-99.9,30.22,SE,140,2.0,-999.0,-999,-99.99,,,-99.99,,2013-06-20 15:00:00,
2013-06-20 15:34:00,75.0,-99.9,30.22,SE,140,2.0,-999.0,-999,-99.99,,,-99.99,,2013-06-20 15:34:00,
2013-06-20 15:43:00,75.0,-99.9,30.22,SE,140,2.0,-999.0,-999,-99.99,,,-99.99,,2013-06-20 15:43:00,
2013-06-20 15:53:00,75.0,-99.9,30.22,SE,140,2.0,-999.0,-999,-99.99,,,-99.99,,2013-06-20 15:53:00,
2013-06-20 17:00:00,75.0,-99.9,30.21,SE,130,2.0,-999.0,-999,-99.99,,,-99.99,,2013-06-20 17:00:00,
2013-06-20 17:43:00,75.0,-99.9,30.21,SE,130,2.0,-999.0,-999,-99.99,,,-99.99,,2013-06-20 17:43:00,
2013-06-20 17:53:00,75.0,-99.9,30.21,SE,130,2.0,-999.0,-999,-99.99,,,-99.99,,2013-06-20 17:53:00,
2013-06-20 18:00:00,74.0,-99.9,30.19,East,80,9.0,-999.0,-999,-99.99,,,-99.99,,2013-06-20 18:00:00,
2013-06-20 18:43:00,74.0,-99.9,30.19,East,80,9.0,-999.0,-999,-99.99,,,-99.99,,2013-06-20 18:43:00,
2013-06-20 18:53:00,74.0,-99.9,30.19,East,80,9.0,-999.0,-999,-99.99,,,-99.99,,2013-06-20 18:53:00,
2013-06-20 19:00:00,75.0,-99.9,30.19,East,100,6.0,-999.0,-999,-99.99,,,-99.99,,2013-06-20 19:00:00,
2013-06-20 19:34:00,75.0,-99.9,30.19,East,100,6.0,-999.0,-999,-99.99,,,-99.99,,2013-06-20 19:34:00,
2013-06-20 19:44:00,75.0,-99.9,30.19,East,100,6.0,-999.0,-999,-99.99,,,-99.99,,2013-06-20 19:44:00,
2013-06-20 19:53:00,75.0,-99.9,30.19,East,100,6.0,-999.0,-999,-99.99,,,-99.99,,2013-06-20 19:53:00,
2013-06-20 20:00:00,75.0,-99.9,30.19,East,90,15.0,-999.0,-999,-99.99,,,-99.99,,2013-06-20 20:00:00,
2013-06-20 20:43:00,75.0,-99.9,30.19,East,90,15.0,-999.0,-999,-99.99,,,-99.99,,2013-06-20 20:43:00,
2013-06-20 20:53:00,75.0,-99.9,30.19,East,90,15.0,-999.0,-999,-99.99,,,-99.99,,2013-06-20 20:53:00,